Impacts TAF Board INFO
IDs:

KSTL - St Louis/Lambert Int, MO, US

Issued at 2056 UTC 09 Dec 2016
Updated at 2116 UTC 09 Dec 2016
Potential Impact None Slight Moderate High
Time2051Z 09/22Z 09/23Z 10/00Z 10/01Z 10/02Z 10/03Z 10/04Z 10/05Z 10/06Z 10/07Z 10/08Z 10/09Z 10/10Z
Type OBS PRVL PRVL PRVL PRVL PRVL PRVL PRVL PRVL PRVL PRVL PRVL PRVL PRVL
VIS 10 >6 >6 >6 >6 >6 >6 >6 >6 >6 >6 >6 >6 >6
CIG 140 120 120 120 -- -- -- -- -- -- -- -- -- --
Cover BKN BKN BKN BKN SCT SCT SCT SCT SCT SCT SCT SCT SCT SCT
FltCat VFR VFR VFR VFR VFR VFR VFR VFR VFR VFR VFR VFR VFR VFR
WX -- -- -- -- -- -- -- -- -- -- -- -- -- --
WDir 280 300 300 300 VRB VRB VRB VRB VRB VRB VRB VRB VRB VRB
WSpd 7 6 6 6 0 0 0 0 0 0 0 0 0 0
WGst -- -- -- -- -- -- -- -- -- -- -- -- -- --

Raw TAF
KSTL 092056Z 0921/1024 30006KT P6SM FEW035 BKN120
  FM100100 00000KT P6SM SCT200
  FM101400 16006KT P6SM BKN110


Raw METAR
KSTL 092051Z 28007KT 10SM FEW035 BKN140 BKN250 M01/M12 A3058 RMK AO2 SLP371 T10111117 56017
KSTL 091951Z VRB06KT 10SM FEW032 BKN130 BKN250 M01/M11 A3059 RMK AO2 SLP373 T10061111
KSTL 091851Z 27008KT 10SM FEW028 BKN130 BKN250 M02/M11 A3060 RMK AO2 SLP379 T10221111

METAR Board
Radar Display
Forecast Discussion